CheckWX is a tool to help pilots better visualize weather data.  It is not intended as a substitute for an official pre-flight weather briefing.

16:49:21 UTC

KRND TAF
Randolph AFB Airport
Universal City, Texas, USA
TAF AMD KRND 221410Z 2214/2315 16006KT 9999 BKN015 QNH2996INS TEMPO 2214/2216 SCT015 BECMG 2216/2217 16009KT 9999 SCT150 QNH2992INS BECMG 2308/2309 VRB06KT 9000 -SHRA SCT015 BKN025 QNH2993INS TEMPO 2310/2312 VRB10G15KT 6000 -TSRA BKN015CB BECMG 2313/2314 36010KT 9999 NSW SCT025 BKN050 QNH3004INS TX35/2222Z TN24/2214Z

Jul-22@
14:00 UTC

Jul-22 @ 14:00 UTC

Jul-22@
16:00 UTC

Jul-22 @ 16:00 UTC

TAF AMD KRND 221410Z 2214/2315 16006KT 9999 BKN015 QNH2996INS

Expired

Wind
  • 160° at 6 KTS
Cloud Levels
  • Broken at 1,500' AGL

Jul-22@
14:00 UTC

Jul-22 @ 14:00 UTC

Jul-22@
16:00 UTC

Jul-22 @ 16:00 UTC

TEMPO 2214/2216 SCT015

Expired

Cloud Levels
  • Scattered at 1,500' AGL

Jul-22@
16:00 UTC

Jul-22 @ 16:00 UTC

Jul-23@
08:00 UTC

Jul-23 @ 08:00 UTC

BECMG 2216/2217 16009KT 9999 SCT150 QNH2992INS

Becoming

Becoming Conditions expected by Mon, Jul 22, 2019 @ 17:00 UTC

Wind
  • 160° at 9 KTS
Cloud Levels
  • Scattered at 15,000' AGL

Jul-23@
08:00 UTC

Jul-23 @ 08:00 UTC

Jul-23@
13:00 UTC

Jul-23 @ 13:00 UTC

BECMG 2308/2309 VRB06KT 9000 -SHRA SCT015 BKN025 QNH2993INS

Becoming

Becoming Conditions expected by Tue, Jul 23, 2019 @ 09:00 UTC

Wind
  • Variable at 6 KTS
Conditions
Light Rain
Cloud Levels
  • Scattered at 1,500' AGL
  • Broken at 2,500' AGL

Jul-23@
10:00 UTC

Jul-23 @ 10:00 UTC

Jul-23@
12:00 UTC

Jul-23 @ 12:00 UTC

TEMPO 2310/2312 VRB10G15KT 6000 -TSRA BKN015CB

Temporary

Temporary Changes expected for less than half the time period

Wind
  • Variable at 10 KTS
  • {Gusting to 15 KTS
Conditions
Light Thunderstorm, Light Rain
Cloud Levels
  • Broken at 1,500' AGL

Jul-23@
13:00 UTC

Jul-23 @ 13:00 UTC

Jul-23@
15:00 UTC

Jul-23 @ 15:00 UTC

BECMG 2313/2314 36010KT 9999 NSW SCT025 BKN050 QNH3004INS TX35/2222Z TN24/2214Z

Becoming

Becoming Conditions expected by Tue, Jul 23, 2019 @ 14:00 UTC

Wind
  • 360° at 10 KTS
Conditions
No significant weather
Cloud Levels
  • Scattered at 2,500' AGL
  • Broken at 5,000' AGL